sensor_id;sensor_type;location;lat;lon;timestamp;pressure;altitude;pressure_sealevel;temperature;humidity
32109;BME280;18624;50.042;8.436;2022-10-16T00:00:53;100201.59;;;15.16;100.00
32109;BME280;18624;50.042;8.436;2022-10-16T00:03:19;100207.44;;;15.18;100.00
32109;BME280;18624;50.042;8.436;2022-10-16T00:05:45;100192.41;;;15.19;100.00
32109;BME280;18624;50.042;8.436;2022-10-16T00:08:13;100156.44;;;14.96;100.00
32109;BME280;18624;50.042;8.436;2022-10-16T00:10:40;100162.09;;;15.01;100.00
32109;BME280;18624;50.042;8.436;2022-10-16T00:13:10;100183.66;;;15.21;100.00
32109;BME280;18624;50.042;8.436;2022-10-16T00:15:36;100184.41;;;15.22;100.00
32109;BME280;18624;50.042;8.436;2022-10-16T00:18:04;100193.47;;;15.22;100.00
32109;BME280;18624;50.042;8.436;2022-10-16T00:20:34;100195.00;;;15.23;100.00
32109;BME280;18624;50.042;8.436;2022-10-16T00:23:01;100208.06;;;15.23;100.00
32109;BME280;18624;50.042;8.436;2022-10-16T00:25:27;100201.44;;;15.20;100.00
32109;BME280;18624;50.042;8.436;2022-10-16T00:27:54;100193.94;;;15.20;100.00
32109;BME280;18624;50.042;8.436;2022-10-16T00:30:21;100199.00;;;15.22;100.00
32109;BME280;18624;50.042;8.436;2022-10-16T00:32:48;100198.53;;;15.24;100.00
32109;BME280;18624;50.042;8.436;2022-10-16T00:35:14;100183.97;;;15.23;100.00
32109;BME280;18624;50.042;8.436;2022-10-16T00:37:40;100170.50;;;15.07;100.00
32109;BME280;18624;50.042;8.436;2022-10-16T00:40:08;100200.25;;;15.12;100.00
32109;BME280;18624;50.042;8.436;2022-10-16T00:42:35;100197.28;;;15.25;100.00
32109;BME280;18624;50.042;8.436;2022-10-16T00:45:03;100159.03;;;14.99;100.00
32109;BME280;18624;50.042;8.436;2022-10-16T00:47:32;100182.88;;;15.20;100.00
32109;BME280;18624;50.042;8.436;2022-10-16T00:50:13;100196.53;;;15.24;100.00
32109;BME280;18624;50.042;8.436;2022-10-16T00:52:46;100186.25;;;15.25;100.00
32109;BME280;18624;50.042;8.436;2022-10-16T00:55:13;100179.97;;;15.24;100.00
32109;BME280;18624;50.042;8.436;2022-10-16T00:57:39;100194.53;;;15.25;100.00
32109;BME280;18624;50.042;8.436;2022-10-16T01:00:09;100201.59;;;15.26;100.00
32109;BME280;18624;50.042;8.436;2022-10-16T01:02:36;100207.88;;;15.26;100.00
32109;BME280;18624;50.042;8.436;2022-10-16T01:05:03;100221.22;;;15.28;100.00
32109;BME280;18624;50.042;8.436;2022-10-16T01:07:49;100229.78;;;15.30;100.00
32109;BME280;18624;50.042;8.436;2022-10-16T01:10:27;100187.69;;;15.02;100.00
32109;BME280;18624;50.042;8.436;2022-10-16T01:13:18;100236.56;;;15.29;100.00
32109;BME280;18624;50.042;8.436;2022-10-16T01:15:51;100212.50;;;15.20;100.00
32109;BME280;18624;50.042;8.436;2022-10-16T01:18:25;100233.78;;;15.29;100.00
32109;BME280;18624;50.042;8.436;2022-10-16T01:26:19;100209.88;;;15.26;100.00
32109;BME280;18624;50.042;8.436;2022-10-16T01:29:03;100209.88;;;15.26;100.00
32109;BME280;18624;50.042;8.436;2022-10-16T01:31:34;100218.63;;;15.24;100.00
32109;BME280;18624;50.042;8.436;2022-10-16T01:34:05;100216.63;;;15.25;100.00
32109;BME280;18624;50.042;8.436;2022-10-16T01:36:39;100207.75;;;15.20;100.00
32109;BME280;18624;50.042;8.436;2022-10-16T01:39:10;100207.56;;;15.24;100.00
32109;BME280;18624;50.042;8.436;2022-10-16T01:41:44;100172.53;;;14.97;100.00
32109;BME280;18624;50.042;8.436;2022-10-16T01:44:25;100210.66;;;15.17;100.00
32109;BME280;18624;50.042;8.436;2022-10-16T01:46:53;100215.72;;;15.18;100.00
32109;BME280;18624;50.042;8.436;2022-10-16T01:49:23;100237.06;;;15.18;100.00
32109;BME280;18624;50.042;8.436;2022-10-16T01:51:54;100238.09;;;15.20;100.00
32109;BME280;18624;50.042;8.436;2022-10-16T01:54:23;100235.81;;;15.19;100.00
32109;BME280;18624;50.042;8.436;2022-10-16T01:56:53;100219.72;;;15.08;100.00
32109;BME280;18624;50.042;8.436;2022-10-16T01:59:24;100241.81;;;15.17;100.00
32109;BME280;18624;50.042;8.436;2022-10-16T02:01:55;100237.50;;;15.16;100.00
32109;BME280;18624;50.042;8.436;2022-10-16T02:06:56;100240.25;;;15.16;100.00
32109;BME280;18624;50.042;8.436;2022-10-16T02:09:23;100237.97;;;15.15;100.00
32109;BME280;18624;50.042;8.436;2022-10-16T02:11:52;100240.25;;;15.16;100.00
32109;BME280;18624;50.042;8.436;2022-10-16T02:14:20;100243.97;;;15.13;100.00
32109;BME280;18624;50.042;8.436;2022-10-16T02:16:48;100235.69;;;15.13;100.00
32109;BME280;18624;50.042;8.436;2022-10-16T02:19:16;100239.66;;;15.12;100.00
32109;BME280;18624;50.042;8.436;2022-10-16T02:21:54;100229.38;;;15.13;100.00
32109;BME280;18624;50.042;8.436;2022-10-16T02:29:29;100200.44;;;14.81;100.00
32109;BME280;18624;50.042;8.436;2022-10-16T02:32:01;100243.03;;;15.07;100.00
32109;BME280;18624;50.042;8.436;2022-10-16T02:34:31;100249.47;;;15.13;100.00
32109;BME280;18624;50.042;8.436;2022-10-16T02:37:00;100253.00;;;15.14;100.00
32109;BME280;18624;50.042;8.436;2022-10-16T02:39:28;100265.72;;;15.11;100.00
32109;BME280;18624;50.042;8.436;2022-10-16T02:41:55;100252.25;;;15.13;100.00
32109;BME280;18624;50.042;8.436;2022-10-16T02:44:22;100227.75;;;14.88;100.00
32109;BME280;18624;50.042;8.436;2022-10-16T02:46:48;100252.41;;;15.10;100.00
32109;BME280;18624;50.042;8.436;2022-10-16T02:49:14;100250.41;;;15.10;100.00
32109;BME280;18624;50.042;8.436;2022-10-16T02:51:41;100260.69;;;15.10;100.00
32109;BME280;18624;50.042;8.436;2022-10-16T02:54:07;100275.53;;;15.12;100.00
32109;BME280;18624;50.042;8.436;2022-10-16T02:56:34;100270.00;;;15.12;100.00
32109;BME280;18624;50.042;8.436;2022-10-16T02:59:00;100265.72;;;15.11;100.00
32109;BME280;18624;50.042;8.436;2022-10-16T03:01:27;100260.22;;;15.11;100.00
32109;BME280;18624;50.042;8.436;2022-10-16T03:03:53;100251.63;;;15.09;100.00
32109;BME280;18624;50.042;8.436;2022-10-16T03:06:20;100255.91;;;15.10;100.00
32109;BME280;18624;50.042;8.436;2022-10-16T03:08:46;100222.38;;;14.84;100.00
32109;BME280;18624;50.042;8.436;2022-10-16T03:11:13;100255.16;;;15.10;100.00
32109;BME280;18624;50.042;8.436;2022-10-16T03:13:39;100259.44;;;15.11;100.00
32109;BME280;18624;50.042;8.436;2022-10-16T03:16:05;100255.91;;;15.10;100.00
32109;BME280;18624;50.042;8.436;2022-10-16T03:18:32;100257.44;;;15.11;100.00
32109;BME280;18624;50.042;8.436;2022-10-16T03:20:58;100264.19;;;15.10;100.00
32109;BME280;18624;50.042;8.436;2022-10-16T03:23:25;100270.97;;;15.09;100.00
32109;BME280;18624;50.042;8.436;2022-10-16T03:25:51;100276.00;;;15.11;100.00
32109;BME280;18624;50.042;8.436;2022-10-16T03:28:18;100281.06;;;15.12;100.00
32109;BME280;18624;50.042;8.436;2022-10-16T03:30:44;100267.13;;;15.07;100.00
32109;BME280;18624;50.042;8.436;2022-10-16T03:33:11;100277.88;;;15.05;100.00
32109;BME280;18624;50.042;8.436;2022-10-16T03:35:38;100276.31;;;15.04;100.00
32109;BME280;18624;50.042;8.436;2022-10-16T03:38:04;100283.38;;;15.05;100.00
32109;BME280;18624;50.042;8.436;2022-10-16T03:40:31;100284.16;;;15.05;100.00
32109;BME280;18624;50.042;8.436;2022-10-16T03:42:58;100285.69;;;15.06;100.00
32109;BME280;18624;50.042;8.436;2022-10-16T03:45:26;100282.91;;;15.06;100.00
32109;BME280;18624;50.042;8.436;2022-10-16T03:47:53;100284.91;;;15.06;100.00
32109;BME280;18624;50.042;8.436;2022-10-16T03:50:20;100282.16;;;15.06;100.00
32109;BME280;18624;50.042;8.436;2022-10-16T03:52:46;100278.63;;;15.05;100.00
32109;BME280;18624;50.042;8.436;2022-10-16T03:55:13;100284.91;;;15.06;100.00
32109;BME280;18624;50.042;8.436;2022-10-16T03:57:39;100279.88;;;15.04;100.00
32109;BME280;18624;50.042;8.436;2022-10-16T04:00:06;100279.88;;;15.04;100.00
32109;BME280;18624;50.042;8.436;2022-10-16T04:02:37;100272.34;;;15.05;100.00
32109;BME280;18624;50.042;8.436;2022-10-16T04:05:03;100264.97;;;15.02;100.00
32109;BME280;18624;50.042;8.436;2022-10-16T04:07:30;100278.00;;;15.01;100.00
32109;BME280;18624;50.042;8.436;2022-10-16T04:09:56;100291.50;;;14.99;100.00
32109;BME280;18624;50.042;8.436;2022-10-16T04:12:28;100291.06;;;15.01;100.00
32109;BME280;18624;50.042;8.436;2022-10-16T04:14:54;100287.53;;;15.00;100.00
32109;BME280;18624;50.042;8.436;2022-10-16T04:17:20;100281.69;;;14.98;100.00
32109;BME280;18624;50.042;8.436;2022-10-16T04:23:13;100282.63;;;14.95;100.00
32109;BME280;18624;50.042;8.436;2022-10-16T04:25:39;100284.00;;;14.90;100.00
32109;BME280;18624;50.042;8.436;2022-10-16T04:28:06;100290.59;;;14.93;100.00
32109;BME280;18624;50.042;8.436;2022-10-16T04:30:32;100292.59;;;14.92;100.00
32109;BME280;18624;50.042;8.436;2022-10-16T04:32:59;100295.34;;;14.92;100.00
32109;BME280;18624;50.042;8.436;2022-10-16T04:35:31;100287.53;;;14.91;100.00
32109;BME280;18624;50.042;8.436;2022-10-16T04:37:58;100296.09;;;14.93;100.00
32109;BME280;18624;50.042;8.436;2022-10-16T04:40:24;100308.66;;;14.94;100.00
32109;BME280;18624;50.042;8.436;2022-10-16T04:42:51;100303.16;;;14.94;100.00
32109;BME280;18624;50.042;8.436;2022-10-16T04:45:17;100296.25;;;14.89;100.00
32109;BME280;18624;50.042;8.436;2022-10-16T04:47:44;100305.00;;;14.97;100.00
32109;BME280;18624;50.042;8.436;2022-10-16T04:50:10;100291.97;;;14.98;100.00
32109;BME280;18624;50.042;8.436;2022-10-16T04:52:37;100300.25;;;14.98;100.00
32109;BME280;18624;50.042;8.436;2022-10-16T04:55:03;100304.53;;;14.99;100.00
32109;BME280;18624;50.042;8.436;2022-10-16T04:57:30;100311.28;;;14.98;100.00
32109;BME280;18624;50.042;8.436;2022-10-16T04:59:56;100312.03;;;14.98;100.00
32109;BME280;18624;50.042;8.436;2022-10-16T05:02:23;100316.03;;;14.97;100.00
32109;BME280;18624;50.042;8.436;2022-10-16T05:04:49;100319.56;;;14.98;100.00
32109;BME280;18624;50.042;8.436;2022-10-16T05:07:16;100325.09;;;14.98;100.00
32109;BME280;18624;50.042;8.436;2022-10-16T05:09:42;100255.94;;;14.55;100.00
32109;BME280;18624;50.042;8.436;2022-10-16T05:12:09;100320.31;;;14.98;100.00
32109;BME280;18624;50.042;8.436;2022-10-16T05:14:36;100316.03;;;14.97;100.00
32109;BME280;18624;50.042;8.436;2022-10-16T05:17:03;100185.88;;;14.16;100.00
32109;BME280;18624;50.042;8.436;2022-10-16T05:19:29;100299.47;;;14.97;100.00
32109;BME280;18624;50.042;8.436;2022-10-16T05:21:55;100301.47;;;14.97;100.00
32109;BME280;18624;50.042;8.436;2022-10-16T05:24:22;100310.22;;;14.95;100.00
32109;BME280;18624;50.042;8.436;2022-10-16T05:26:49;100301.94;;;14.95;100.00
32109;BME280;18624;50.042;8.436;2022-10-16T05:29:16;100305.28;;;14.90;100.00
32109;BME280;18624;50.042;8.436;2022-10-16T05:31:42;100298.88;;;14.93;100.00
32109;BME280;18624;50.042;8.436;2022-10-16T05:34:09;100287.22;;;14.89;100.00
32109;BME280;18624;50.042;8.436;2022-10-16T05:36:35;100295.50;;;14.89;100.00
32109;BME280;18624;50.042;8.436;2022-10-16T05:39:02;100300.56;;;14.90;100.00
32109;BME280;18624;50.042;8.436;2022-10-16T05:41:29;100310.66;;;14.84;100.00
32109;BME280;18624;50.042;8.436;2022-10-16T05:43:55;100324.31;;;14.88;100.00
32109;BME280;18624;50.042;8.436;2022-10-16T05:46:21;100324.31;;;14.88;100.00
32109;BME280;18624;50.042;8.436;2022-10-16T05:48:51;100316.19;;;14.75;100.00
32109;BME280;18624;50.042;8.436;2022-10-16T05:51:17;100342.09;;;14.87;100.00
32109;BME280;18624;50.042;8.436;2022-10-16T05:53:43;100344.09;;;14.86;100.00
32109;BME280;18624;50.042;8.436;2022-10-16T05:56:15;100337.19;;;14.82;100.00
32109;BME280;18624;50.042;8.436;2022-10-16T05:58:42;100357.91;;;14.86;100.00
32109;BME280;18624;50.042;8.436;2022-10-16T06:01:15;100356.34;;;14.85;100.00
32109;BME280;18624;50.042;8.436;2022-10-16T06:03:42;100360.66;;;14.86;100.00
32109;BME280;18624;50.042;8.436;2022-10-16T06:06:16;100353.59;;;14.85;100.00
32109;BME280;18624;50.042;8.436;2022-10-16T06:08:44;100356.06;;;14.83;100.00
32109;BME280;18624;50.042;8.436;2022-10-16T06:11:14;100358.03;;;14.83;100.00
32109;BME280;18624;50.042;8.436;2022-10-16T06:13:41;100356.06;;;14.83;100.00
32109;BME280;18624;50.042;8.436;2022-10-16T06:16:10;100361.88;;;14.85;100.00
32109;BME280;18624;50.042;8.436;2022-10-16T06:18:36;100362.63;;;14.86;100.00
32109;BME280;18624;50.042;8.436;2022-10-16T06:21:16;100326.91;;;14.64;100.00
32109;BME280;18624;50.042;8.436;2022-10-16T06:23:43;100373.53;;;14.89;100.00
32109;BME280;18624;50.042;8.436;2022-10-16T06:26:19;100364.81;;;14.91;100.00
32109;BME280;18624;50.042;8.436;2022-10-16T06:28:47;100368.31;;;14.91;100.00
32109;BME280;18624;50.042;8.436;2022-10-16T06:31:14;100303.59;;;14.56;100.00
32109;BME280;18624;50.042;8.436;2022-10-16T06:33:41;100285.91;;;14.44;100.00
32109;BME280;18624;50.042;8.436;2022-10-16T06:36:13;100361.09;;;14.94;100.00
32109;BME280;18624;50.042;8.436;2022-10-16T06:38:41;100275.97;;;14.37;100.00
32109;BME280;18624;50.042;8.436;2022-10-16T06:41:11;100364.19;;;14.87;100.00
32109;BME280;18624;50.042;8.436;2022-10-16T06:43:38;100316.63;;;14.55;100.00
32109;BME280;18624;50.042;8.436;2022-10-16T06:46:06;100377.38;;;14.92;100.00
32109;BME280;18624;50.042;8.436;2022-10-16T06:48:34;100331.47;;;14.58;100.00
32109;BME280;18624;50.042;8.436;2022-10-16T06:51:15;100389.94;;;14.93;100.00
32109;BME280;18624;50.042;8.436;2022-10-16T06:53:45;100377.03;;;14.90;100.00
32109;BME280;18624;50.042;8.436;2022-10-16T06:56:30;100376.91;;;14.93;100.00
32109;BME280;18624;50.042;8.436;2022-10-16T06:58:57;100307.22;;;14.43;100.00
32109;BME280;18624;50.042;8.436;2022-10-16T07:01:24;100219.16;;;13.81;100.00
32109;BME280;18624;50.042;8.436;2022-10-16T07:03:51;100393.78;;;14.96;100.00
32109;BME280;18624;50.042;8.436;2022-10-16T07:06:20;100365.84;;;14.75;100.00
32109;BME280;18624;50.042;8.436;2022-10-16T07:08:47;100398.84;;;14.97;100.00
32109;BME280;18624;50.042;8.436;2022-10-16T07:11:20;100417.69;;;14.99;100.00
32109;BME280;18624;50.042;8.436;2022-10-16T07:13:48;100403.88;;;14.99;100.00
32109;BME280;18624;50.042;8.436;2022-10-16T07:16:24;100402.34;;;14.98;100.00
32109;BME280;18624;50.042;8.436;2022-10-16T07:18:51;100404.34;;;14.97;100.00
32109;BME280;18624;50.042;8.436;2022-10-16T07:21:21;100411.09;;;14.96;100.00
32109;BME280;18624;50.042;8.436;2022-10-16T07:23:53;100386.38;;;14.74;100.00
32109;BME280;18624;50.042;8.436;2022-10-16T07:26:20;100446.06;;;14.99;100.00
32109;BME280;18624;50.042;8.436;2022-10-16T07:28:47;100389.88;;;14.65;100.00
32109;BME280;18624;50.042;8.436;2022-10-16T07:31:15;100432.13;;;15.03;100.00
32109;BME280;18624;50.042;8.436;2022-10-16T07:33:43;100430.88;;;15.04;100.00
32109;BME280;18624;50.042;8.436;2022-10-16T07:36:12;100442.72;;;15.04;100.00
32109;BME280;18624;50.042;8.436;2022-10-16T07:38:42;100450.06;;;15.07;100.00
32109;BME280;18624;50.042;8.436;2022-10-16T07:41:11;100451.91;;;15.10;100.00
32109;BME280;18624;50.042;8.436;2022-10-16T07:43:38;100424.13;;;14.86;100.00
32109;BME280;18624;50.042;8.436;2022-10-16T07:46:05;100460.19;;;15.10;100.00
32109;BME280;18624;50.042;8.436;2022-10-16T07:48:33;100459.59;;;15.15;100.00
32109;BME280;18624;50.042;8.436;2022-10-16T07:51:02;100464.19;;;15.18;100.00
32109;BME280;18624;50.042;8.436;2022-10-16T07:53:29;100458.53;;;15.22;100.00
32109;BME280;18624;50.042;8.436;2022-10-16T07:56:15;100463.88;;;15.26;100.00
32109;BME280;18624;50.042;8.436;2022-10-16T07:58:43;100482.31;;;15.29;100.00
32109;BME280;18624;50.042;8.436;2022-10-16T08:01:12;100483.41;;;15.31;100.00
32109;BME280;18624;50.042;8.436;2022-10-16T08:03:44;100484.47;;;15.34;100.00
32109;BME280;18624;50.042;8.436;2022-10-16T08:06:10;100487.22;;;15.34;100.00
32109;BME280;18624;50.042;8.436;2022-10-16T08:08:37;100491.84;;;15.37;100.00
32109;BME280;18624;50.042;8.436;2022-10-16T08:11:03;100501.66;;;15.38;100.00
32109;BME280;18624;50.042;8.436;2022-10-16T08:13:31;100502.13;;;15.36;100.00
32109;BME280;18624;50.042;8.436;2022-10-16T08:15:57;100426.88;;;14.86;100.00
32109;BME280;18624;50.042;8.436;2022-10-16T08:18:24;100506.88;;;15.36;100.00
32109;BME280;18624;50.042;8.436;2022-10-16T08:20:57;100473.09;;;15.13;100.00
32109;BME280;18624;50.042;8.436;2022-10-16T08:23:24;100512.41;;;15.36;100.00
32109;BME280;18624;50.042;8.436;2022-10-16T08:25:53;100435.47;;;14.88;100.00
32109;BME280;18624;50.042;8.436;2022-10-16T08:28:20;100506.41;;;15.37;100.00
32109;BME280;18624;50.042;8.436;2022-10-16T08:30:46;100518.53;;;15.40;100.00
32109;BME280;18624;50.042;8.436;2022-10-16T08:33:13;100524.84;;;15.40;100.00
32109;BME280;18624;50.042;8.436;2022-10-16T08:35:40;100523.75;;;15.38;100.00
32109;BME280;18624;50.042;8.436;2022-10-16T08:38:06;100526.38;;;15.41;100.00
32109;BME280;18624;50.042;8.436;2022-10-16T08:40:36;100531.13;;;15.41;100.00
32109;BME280;18624;50.042;8.436;2022-10-16T08:48:20;100554.16;;;15.47;100.00
32109;BME280;18624;50.042;8.436;2022-10-16T08:50:51;100543.09;;;15.47;100.00
32109;BME280;18624;50.042;8.436;2022-10-16T08:53:26;100549.72;;;15.50;100.00
32109;BME280;18624;50.042;8.436;2022-10-16T08:55:54;100548.47;;;15.51;100.00
32109;BME280;18624;50.042;8.436;2022-10-16T08:58:23;100548.16;;;15.49;100.00
32109;BME280;18624;50.042;8.436;2022-10-16T09:01:01;100557.81;;;15.53;100.00
32109;BME280;18624;50.042;8.436;2022-10-16T09:03:50;100561.69;;;15.56;100.00
32109;BME280;18624;50.042;8.436;2022-10-16T09:06:30;100567.66;;;15.54;100.00
32109;BME280;18624;50.042;8.436;2022-10-16T09:11:50;100585.16;;;15.51;100.00
32109;BME280;18624;50.042;8.436;2022-10-16T09:17:40;100592.53;;;15.54;100.00
32109;BME280;18624;50.042;8.436;2022-10-16T09:23:13;100597.09;;;15.48;100.00
32109;BME280;18624;50.042;8.436;2022-10-16T09:25:44;100592.81;;;15.47;100.00
32109;BME280;18624;50.042;8.436;2022-10-16T09:28:11;100608.63;;;15.47;100.00
32109;BME280;18624;50.042;8.436;2022-10-16T09:30:38;100614.91;;;15.47;100.00
32109;BME280;18624;50.042;8.436;2022-10-16T09:33:06;100611.38;;;15.47;100.00
32109;BME280;18624;50.042;8.436;2022-10-16T09:35:43;100612.16;;;15.47;100.00
32109;BME280;18624;50.042;8.436;2022-10-16T09:38:32;100612.91;;;15.48;100.00
32109;BME280;18624;50.042;8.436;2022-10-16T09:41:19;100610.91;;;15.48;100.00
32109;BME280;18624;50.042;8.436;2022-10-16T09:43:52;100544.84;;;15.04;100.00
32109;BME280;18624;50.042;8.436;2022-10-16T09:46:31;100628.59;;;15.51;100.00
32109;BME280;18624;50.042;8.436;2022-10-16T09:49:04;100621.06;;;15.51;100.00
32109;BME280;18624;50.042;8.436;2022-10-16T09:51:35;100627.06;;;15.50;100.00
32109;BME280;18624;50.042;8.436;2022-10-16T09:54:15;100627.50;;;15.48;100.00
32109;BME280;18624;50.042;8.436;2022-10-16T09:56:41;100577.22;;;15.13;100.00
32109;BME280;18624;50.042;8.436;2022-10-16T10:01:51;100628.88;;;15.53;100.00
32109;BME280;18624;50.042;8.436;2022-10-16T10:04:19;100587.88;;;15.33;100.00
32109;BME280;18624;50.042;8.436;2022-10-16T10:06:49;100625.09;;;15.59;100.00
32109;BME280;18624;50.042;8.436;2022-10-16T10:11:49;100624.50;;;15.64;100.00
32109;BME280;18624;50.042;8.436;2022-10-16T10:14:17;100631.88;;;15.67;100.00
32109;BME280;18624;50.042;8.436;2022-10-16T10:16:44;100582.22;;;15.36;100.00
32109;BME280;18624;50.042;8.436;2022-10-16T10:19:18;100633.72;;;15.70;100.00
32109;BME280;18624;50.042;8.436;2022-10-16T10:21:45;100636.47;;;15.70;100.00
32109;BME280;18624;50.042;8.436;2022-10-16T10:24:14;100627.28;;;15.74;100.00
32109;BME280;18624;50.042;8.436;2022-10-16T10:27:06;100625.75;;;15.73;100.00
32109;BME280;18624;50.042;8.436;2022-10-16T10:30:01;100624.81;;;15.76;100.00
32109;BME280;18624;50.042;8.436;2022-10-16T10:35:53;100622.69;;;15.89;100.00
32109;BME280;18624;50.042;8.436;2022-10-16T10:44:19;100627.63;;;15.94;100.00
32109;BME280;18624;50.042;8.436;2022-10-16T10:47:01;100600.91;;;15.82;100.00
32109;BME280;18624;50.042;8.436;2022-10-16T10:49:43;100615.19;;;15.99;100.00
32109;BME280;18624;50.042;8.436;2022-10-16T10:52:43;100614.72;;;16.00;100.00
32109;BME280;18624;50.042;8.436;2022-10-16T10:55:44;100619.03;;;16.01;100.00
32109;BME280;18624;50.042;8.436;2022-10-16T11:01:05;100622.25;;;16.09;100.00
32109;BME280;18624;50.042;8.436;2022-10-16T11:06:40;100620.88;;;16.23;100.00
32109;BME280;18624;50.042;8.436;2022-10-16T11:09:24;100609.66;;;16.26;100.00
32109;BME280;18624;50.042;8.436;2022-10-16T11:11:54;100608.88;;;16.35;100.00
32109;BME280;18624;50.042;8.436;2022-10-16T11:14:38;100618.84;;;16.41;100.00
32109;BME280;18624;50.042;8.436;2022-10-16T11:17:18;100527.03;;;15.82;100.00
32109;BME280;18624;50.042;8.436;2022-10-16T11:19:54;100618.56;;;16.49;100.00
32109;BME280;18624;50.042;8.436;2022-10-16T11:22:30;100619.31;;;16.49;100.00
32109;BME280;18624;50.042;8.436;2022-10-16T11:27:57;100610.38;;;16.54;100.00
32109;BME280;18624;50.042;8.436;2022-10-16T11:30:29;100612.38;;;16.54;100.00
32109;BME280;18624;50.042;8.436;2022-10-16T11:35:55;100615.59;;;16.52;100.00
32109;BME280;18624;50.042;8.436;2022-10-16T11:38:32;100617.16;;;16.53;100.00
32109;BME280;18624;50.042;8.436;2022-10-16T11:41:10;100617.16;;;16.53;100.00
32109;BME280;18624;50.042;8.436;2022-10-16T11:43:45;100620.06;;;16.59;100.00
32109;BME280;18624;50.042;8.436;2022-10-16T11:46:19;100608.38;;;16.64;100.00
32109;BME280;18624;50.042;8.436;2022-10-16T11:49:13;100607.72;;;16.69;100.00
32109;BME280;18624;50.042;8.436;2022-10-16T11:54:46;100591.59;;;16.77;100.00
32109;BME280;18624;50.042;8.436;2022-10-16T11:57:20;100591.13;;;16.78;100.00
32109;BME280;18624;50.042;8.436;2022-10-16T12:00:10;100595.09;;;16.86;100.00
32109;BME280;18624;50.042;8.436;2022-10-16T12:05:46;100599.84;;;16.95;100.00
32109;BME280;18624;50.042;8.436;2022-10-16T12:08:17;100581.78;;;16.76;100.00
32109;BME280;18624;50.042;8.436;2022-10-16T12:10:46;100597.56;;;16.93;100.00
32109;BME280;18624;50.042;8.436;2022-10-16T12:13:36;100600.31;;;16.93;100.00
32109;BME280;18624;50.042;8.436;2022-10-16T12:18:43;100605.50;;;17.01;100.00
32109;BME280;18624;50.042;8.436;2022-10-16T12:21:11;100607.34;;;17.04;100.00
32109;BME280;18624;50.042;8.436;2022-10-16T12:23:53;100610.25;;;17.09;100.00
32109;BME280;18624;50.042;8.436;2022-10-16T12:26:31;100623.78;;;17.16;100.00
32109;BME280;18624;50.042;8.436;2022-10-16T12:35:25;100619.56;;;17.30;100.00
32109;BME280;18624;50.042;8.436;2022-10-16T12:37:53;100623.81;;;17.40;100.00
32109;BME280;18624;50.042;8.436;2022-10-16T12:40:25;100624.88;;;17.43;100.00
32109;BME280;18624;50.042;8.436;2022-10-16T12:42:52;100592.06;;;17.17;100.00
32109;BME280;18624;50.042;8.436;2022-10-16T12:45:31;100631.47;;;17.45;100.00
32109;BME280;18624;50.042;8.436;2022-10-16T12:48:00;100628.22;;;17.47;100.00
32109;BME280;18624;50.042;8.436;2022-10-16T12:50:31;100619.91;;;17.47;100.00
32109;BME280;18624;50.042;8.436;2022-10-16T12:53:00;100620.88;;;17.44;100.00
32109;BME280;18624;50.042;8.436;2022-10-16T12:55:34;100632.53;;;17.48;100.00
32109;BME280;18624;50.042;8.436;2022-10-16T12:58:20;100621.47;;;17.48;100.00
32109;BME280;18624;50.042;8.436;2022-10-16T13:01:04;100573.56;;;17.24;100.00
32109;BME280;18624;50.042;8.436;2022-10-16T13:04:04;100625.13;;;17.54;100.00
32109;BME280;18624;50.042;8.436;2022-10-16T13:06:58;100616.81;;;17.54;100.00
32109;BME280;18624;50.042;8.436;2022-10-16T13:09:32;100623.88;;;17.55;100.00
32109;BME280;18624;50.042;8.436;2022-10-16T13:12:13;100631.91;;;17.53;100.00
32109;BME280;18624;50.042;8.436;2022-10-16T13:17:48;100629.31;;;17.50;100.00
32109;BME280;18624;50.042;8.436;2022-10-16T13:26:05;100628.69;;;17.45;100.00
32109;BME280;18624;50.042;8.436;2022-10-16T13:28:37;100628.53;;;17.49;100.00
32109;BME280;18624;50.042;8.436;2022-10-16T13:31:04;100627.28;;;17.50;100.00
32109;BME280;18624;50.042;8.436;2022-10-16T13:33:35;100616.22;;;17.50;100.00
32109;BME280;18624;50.042;8.436;2022-10-16T13:36:03;100578.81;;;17.21;100.00
32109;BME280;18624;50.042;8.436;2022-10-16T13:38:33;100620.50;;;17.51;100.00
32109;BME280;18624;50.042;8.436;2022-10-16T13:41:05;100597.69;;;17.32;100.00
32109;BME280;18624;50.042;8.436;2022-10-16T13:43:35;100622.81;;;17.53;100.00
32109;BME280;18624;50.042;8.436;2022-10-16T13:46:05;100623.59;;;17.53;100.00
32109;BME280;18624;50.042;8.436;2022-10-16T13:48:34;100606.06;;;17.47;100.00
32109;BME280;18624;50.042;8.436;2022-10-16T13:51:10;100620.81;;;17.53;100.00
32109;BME280;18624;50.042;8.436;2022-10-16T13:53:38;100611.16;;;17.49;100.00
32109;BME280;18624;50.042;8.436;2022-10-16T13:56:07;100618.22;;;17.50;100.00
32109;BME280;18624;50.042;8.436;2022-10-16T13:58:36;100608.81;;;17.47;100.00
32109;BME280;18624;50.042;8.436;2022-10-16T14:01:15;100609.13;;;17.49;100.00
32109;BME280;18624;50.042;8.436;2022-10-16T14:03:43;100567.09;;;17.27;100.00
32109;BME280;18624;50.042;8.436;2022-10-16T14:06:16;100599.56;;;17.50;100.00
32109;BME280;18624;50.042;8.436;2022-10-16T14:11:25;100602.13;;;17.39;100.00
32109;BME280;18624;50.042;8.436;2022-10-16T14:13:53;100608.13;;;17.37;100.00
32109;BME280;18624;50.042;8.436;2022-10-16T14:16:26;100625.44;;;17.47;100.00
32109;BME280;18624;50.042;8.436;2022-10-16T14:19:01;100616.38;;;17.46;100.00
32109;BME280;18624;50.042;8.436;2022-10-16T14:21:29;100602.56;;;17.37;100.00